Ophir, Kentucky
Current Conditions -  °F | °C
As of 9:35 AM on Wednesday 22 Oct 2014 (Local Time) from KSJS Reporting Station
Overcast Overcast  
Wind Chill: 45°   Ceiling: 1100
Heat Index: 45°   Visibility: 10mi
Dew Point: 42°   Wind: 3mph
Humidity: 88%   Direction: 350°N
Pressure: 30.22"   Gusts: NA
Location:  37.91°N, 83.01°W
Report Text: KSJS 221335Z AUTO 35003KT 10SM OVC011 07/06 A3022 RMK AO2 T00740055
Loading
Personal Weather Stations






























Interactive Weather Map
Tropical Storm Tracking
New forecast layout! Learn more

10-Day Weather Forecast

Advertisements
Track Severe Weather on mobile